createdAt,value
2018-12-14T00:00:32.672Z,69.50
2018-12-14T00:05:16.244Z,69.50
2018-12-14T00:09:59.695Z,69.20
2018-12-14T00:14:41.240Z,68.50
2018-12-14T00:19:22.767Z,69.20
2018-12-14T00:24:04.352Z,68.70
2018-12-14T00:28:46.013Z,68.80
2018-12-14T00:33:27.584Z,68.90
2018-12-14T00:38:09.292Z,68.60
2018-12-14T00:42:50.940Z,68.90
2018-12-14T00:47:32.580Z,68.70
2018-12-14T00:52:13.080Z,68.10
2018-12-14T00:56:54.285Z,68.00
2018-12-14T01:01:35.857Z,68.50
2018-12-14T01:06:17.797Z,68.60
2018-12-14T01:10:59.619Z,68.90
2018-12-14T01:15:41.214Z,68.70
2018-12-14T01:20:22.637Z,68.40
2018-12-14T01:25:04.635Z,68.60
2018-12-14T01:29:46.200Z,69.40
2018-12-14T01:34:27.703Z,68.90
2018-12-14T01:39:09.858Z,68.90
2018-12-14T01:43:51.484Z,68.80
2018-12-14T01:48:33.158Z,69.10
2018-12-14T01:53:14.846Z,69.10
2018-12-14T01:57:56.589Z,69.00
2018-12-14T02:02:38.161Z,68.80
2018-12-14T02:07:19.668Z,69.20
2018-12-14T02:12:01.383Z,69.10
2018-12-14T02:16:42.923Z,69.10
2018-12-14T02:21:24.457Z,68.80
2018-12-14T02:26:06.154Z,68.50
2018-12-14T02:30:47.964Z,68.20
2018-12-14T02:35:29.526Z,68.20
2018-12-14T02:40:11.190Z,68.30
2018-12-14T02:44:52.810Z,68.60
2018-12-14T02:49:34.534Z,68.50
2018-12-14T02:54:17.312Z,68.50
2018-12-14T02:58:58.864Z,68.50
2018-12-14T03:03:40.377Z,68.20
2018-12-14T03:08:21.906Z,68.30
2018-12-14T03:13:03.619Z,68.40
2018-12-14T03:17:45.081Z,68.40
2018-12-14T03:22:26.852Z,67.90
2018-12-14T03:27:08.468Z,67.40
2018-12-14T03:31:50.274Z,66.80
2018-12-14T03:36:31.799Z,67.10
2018-12-14T03:41:13.508Z,67.60
2018-12-14T03:45:55.136Z,67.30
2018-12-14T03:50:36.654Z,67.60
2018-12-14T03:55:18.278Z,68.00
2018-12-14T03:59:59.774Z,67.90
2018-12-14T04:04:41.427Z,67.60
2018-12-14T04:09:23.084Z,68.10
2018-12-14T04:14:04.602Z,67.80
2018-12-14T04:18:46.652Z,68.00
2018-12-14T04:23:28.161Z,68.00
2018-12-14T04:28:09.728Z,67.90
2018-12-14T04:32:51.299Z,68.00
2018-12-14T04:37:33.174Z,68.20
2018-12-14T04:42:14.801Z,67.90
2018-12-14T04:46:57.028Z,67.80
2018-12-14T04:51:38.567Z,68.00
2018-12-14T04:56:20.496Z,68.00
2018-12-14T05:01:02.143Z,68.10
2018-12-14T05:05:43.730Z,68.20
2018-12-14T05:10:25.298Z,68.10
2018-12-14T05:15:08.095Z,67.90
2018-12-14T05:19:49.619Z,66.80
2018-12-14T05:24:31.287Z,67.60
2018-12-14T05:29:12.969Z,67.00
2018-12-14T05:33:55.550Z,67.80
2018-12-14T05:38:37.266Z,67.30
2018-12-14T05:43:18.888Z,67.50
2018-12-14T05:48:00.482Z,67.80
2018-12-14T05:52:41.984Z,67.40
2018-12-14T05:57:23.692Z,67.60
2018-12-14T06:02:06.386Z,67.50
2018-12-14T06:06:48.095Z,67.30
2018-12-14T06:11:29.778Z,67.00
2018-12-14T06:16:11.382Z,66.90
2018-12-14T06:20:52.961Z,67.20
2018-12-14T06:25:34.465Z,66.80
2018-12-14T06:30:16.110Z,67.20
2018-12-14T06:34:57.798Z,67.50
2018-12-14T06:39:39.337Z,68.00
2018-12-14T06:44:20.994Z,67.60
2018-12-14T06:49:02.603Z,67.30
2018-12-14T06:53:44.290Z,67.40
2018-12-14T06:58:25.942Z,67.20
2018-12-14T07:03:07.574Z,67.20
2018-12-14T07:07:49.219Z,67.00
2018-12-14T07:12:30.761Z,67.00
2018-12-14T07:17:12.341Z,67.20
2018-12-14T07:21:53.921Z,66.50
2018-12-14T07:26:35.890Z,66.50
2018-12-14T07:31:17.587Z,67.00
2018-12-14T07:35:59.196Z,67.30
2018-12-14T07:40:40.858Z,67.00
2018-12-14T07:45:22.380Z,67.10
2018-12-14T07:50:04.284Z,67.00
2018-12-14T07:54:45.792Z,67.30
2018-12-14T07:59:27.352Z,67.00
2018-12-14T08:04:08.876Z,67.10
2018-12-14T08:08:50.256Z,66.60
2018-12-14T08:13:34.807Z,66.50
2018-12-14T08:18:15.296Z,66.50
2018-12-14T08:22:56.951Z,66.80
2018-12-14T08:27:38.715Z,66.80
2018-12-14T08:32:20.217Z,67.00
2018-12-14T08:37:01.896Z,67.10
2018-12-14T08:41:43.673Z,67.30
2018-12-14T08:46:25.291Z,66.40
2018-12-14T08:51:06.752Z,67.00
2018-12-14T08:55:48.477Z,67.20
2018-12-14T09:00:29.882Z,66.50
2018-12-14T09:05:11.396Z,67.00
2018-12-14T09:09:52.993Z,66.80
2018-12-14T09:14:34.488Z,66.80
2018-12-14T09:19:16.169Z,66.80
2018-12-14T09:23:57.777Z,67.10
2018-12-14T09:28:39.736Z,67.00
2018-12-14T09:33:21.308Z,67.50
2018-12-14T09:38:02.916Z,67.50
2018-12-14T09:42:44.440Z,67.60
2018-12-14T09:47:25.900Z,67.30
2018-12-14T09:52:07.518Z,67.70
2018-12-14T09:56:49.020Z,67.60
2018-12-14T10:01:30.658Z,67.10
2018-12-14T10:06:15.683Z,67.10
2018-12-14T10:10:56.195Z,67.20
2018-12-14T10:15:37.849Z,67.30
2018-12-14T10:20:19.418Z,67.10
2018-12-14T10:25:07.736Z,67.10
2018-12-14T10:29:49.382Z,67.40
2018-12-14T10:34:31.172Z,67.50
2018-12-14T10:39:12.799Z,67.30
2018-12-14T10:43:54.304Z,67.20
2018-12-14T10:48:35.880Z,67.60
2018-12-14T10:53:17.558Z,67.60
2018-12-14T10:57:59.596Z,67.60
2018-12-14T11:02:41.102Z,67.60
2018-12-14T11:07:22.675Z,67.50
2018-12-14T11:12:04.294Z,67.80
2018-12-14T11:16:45.792Z,67.70
2018-12-14T11:21:27.434Z,67.30
2018-12-14T11:26:09.078Z,67.30
2018-12-14T11:30:50.647Z,67.50
2018-12-14T11:35:32.204Z,67.70
2018-12-14T11:40:13.677Z,67.80
2018-12-14T11:44:55.318Z,67.70
2018-12-14T11:49:37.029Z,67.50
2018-12-14T11:54:18.641Z,67.60
2018-12-14T11:59:00.283Z,67.70
2018-12-14T12:03:42.890Z,67.70
2018-12-14T12:08:24.712Z,68.60
2018-12-14T12:13:06.349Z,67.80
2018-12-14T12:17:49.770Z,67.70
2018-12-14T12:22:31.391Z,68.00
2018-12-14T12:27:12.858Z,67.40
2018-12-14T12:31:54.380Z,67.50
2018-12-14T12:36:35.875Z,67.50
2018-12-14T12:41:17.574Z,67.30
2018-12-14T12:45:59.199Z,66.10
2018-12-14T12:50:41.253Z,66.80
2018-12-14T12:55:22.856Z,66.40
2018-12-14T13:00:04.874Z,66.30
2018-12-14T13:04:47.964Z,66.70
2018-12-14T13:09:29.484Z,66.50
2018-12-14T13:14:11.003Z,66.80
2018-12-14T13:18:52.544Z,66.80
2018-12-14T13:23:34.135Z,66.70
2018-12-14T13:28:16.022Z,66.60
2018-12-14T13:32:58.196Z,66.00
2018-12-14T13:37:40.263Z,66.30
2018-12-14T13:42:22.387Z,66.70
2018-12-14T13:47:03.981Z,66.50
2018-12-14T13:51:45.782Z,66.90
2018-12-14T13:56:27.500Z,66.70
2018-12-14T14:01:09.435Z,65.90
2018-12-14T14:05:51.437Z,66.20
2018-12-14T14:10:33.166Z,66.70
2018-12-14T14:20:14.199Z,65.90
2018-12-14T14:24:55.820Z,66.20
2018-12-14T14:29:37.457Z,66.20
2018-12-14T14:34:19.214Z,66.50
2018-12-14T14:39:00.769Z,65.70
2018-12-14T14:43:43.446Z,65.80
2018-12-14T14:48:25.078Z,66.20
2018-12-14T14:53:06.738Z,66.30
2018-12-14T14:57:48.802Z,65.90
2018-12-14T15:02:30.414Z,66.50
2018-12-14T15:07:12.040Z,66.30
2018-12-14T15:11:53.780Z,66.10
2018-12-14T15:16:35.556Z,65.90
2018-12-14T15:21:17.617Z,65.90
2018-12-14T15:25:59.186Z,65.70
2018-12-14T15:30:40.864Z,66.00
2018-12-14T15:35:22.528Z,66.30
2018-12-14T15:40:04.823Z,66.30
2018-12-14T15:44:46.844Z,65.80
2018-12-14T15:49:28.323Z,65.90
2018-12-14T15:54:09.929Z,66.10
2018-12-14T15:58:51.534Z,66.10
2018-12-14T16:03:34.780Z,66.10
2018-12-14T16:08:16.335Z,66.00
2018-12-14T16:12:57.888Z,66.90
2018-12-14T16:17:39.721Z,66.10
2018-12-14T16:22:21.520Z,66.40
2018-12-14T16:27:03.256Z,65.90
2018-12-14T16:31:44.868Z,66.60
2018-12-14T16:36:26.872Z,66.20
2018-12-14T16:41:08.376Z,66.40
2018-12-14T16:45:50.059Z,66.50
2018-12-14T16:50:31.624Z,66.50
2018-12-14T16:55:13.313Z,66.60
2018-12-14T16:59:54.882Z,66.70
2018-12-14T17:04:36.494Z,66.40
2018-12-14T17:09:18.055Z,66.40
2018-12-14T17:13:59.763Z,66.40
2018-12-14T17:18:41.250Z,66.30
2018-12-14T17:23:22.929Z,66.00
2018-12-14T17:28:04.781Z,65.90
2018-12-14T17:32:47.618Z,66.20
2018-12-14T17:37:29.192Z,66.20
2018-12-14T17:42:12.849Z,66.00
2018-12-14T17:46:54.764Z,66.00
2018-12-14T17:51:36.308Z,66.00
2018-12-14T17:56:17.977Z,65.70
2018-12-14T18:00:59.757Z,65.70
2018-12-14T18:05:41.334Z,65.90
2018-12-14T18:10:22.958Z,66.00
2018-12-14T18:15:05.231Z,66.20
2018-12-14T18:19:47.698Z,66.20
2018-12-14T18:24:29.308Z,66.30
2018-12-14T18:29:11.850Z,66.30
2018-12-14T18:33:53.289Z,66.30
2018-12-14T18:38:34.865Z,66.20
2018-12-14T18:43:17.272Z,66.30
2018-12-14T18:47:59.284Z,66.40
2018-12-14T18:52:41.189Z,66.20
2018-12-14T18:57:23.500Z,66.30
2018-12-14T19:02:05.238Z,66.20
2018-12-14T19:06:48.288Z,66.40
2018-12-14T19:11:29.780Z,66.50
2018-12-14T19:16:11.273Z,66.00
2018-12-14T19:20:52.857Z,66.10
2018-12-14T19:25:34.654Z,66.30
2018-12-14T19:30:16.240Z,66.30
2018-12-14T19:34:57.836Z,66.40
2018-12-14T19:39:39.416Z,66.40
2018-12-14T19:44:21.006Z,66.30
2018-12-14T19:49:02.430Z,66.30
2018-12-14T19:53:43.990Z,66.40
2018-12-14T19:58:26.861Z,66.50
2018-12-14T20:03:08.597Z,66.30
2018-12-14T20:07:50.267Z,66.50
2018-12-14T20:12:31.860Z,66.70
2018-12-14T20:17:13.523Z,66.30
2018-12-14T20:21:55.178Z,66.60
2018-12-14T20:26:36.937Z,66.50
2018-12-14T20:31:18.665Z,66.00
2018-12-14T20:36:00.951Z,66.10
2018-12-14T20:40:42.593Z,66.10
2018-12-14T20:45:24.616Z,65.80
2018-12-14T20:50:08.119Z,66.30
2018-12-14T20:54:49.685Z,66.40
2018-12-14T20:59:31.303Z,66.50
2018-12-14T21:04:13.008Z,66.40
2018-12-14T21:08:54.880Z,66.70
2018-12-14T21:13:38.179Z,66.80
2018-12-14T21:18:19.707Z,66.70
2018-12-14T21:27:59.429Z,66.50
2018-12-14T21:32:41.012Z,66.70
2018-12-14T21:37:22.847Z,66.50
2018-12-14T21:42:04.564Z,66.50
2018-12-14T21:46:46.197Z,66.70
2018-12-14T21:51:27.896Z,66.50
2018-12-14T21:56:12.440Z,66.40
2018-12-14T22:00:54.082Z,66.50
2018-12-14T22:05:35.868Z,66.50
2018-12-14T22:10:17.448Z,66.40
2018-12-14T22:14:59.132Z,66.50
2018-12-14T22:19:40.659Z,66.50
2018-12-14T22:24:22.224Z,66.60
2018-12-14T22:29:03.714Z,66.60
2018-12-14T22:33:45.227Z,66.40
2018-12-14T22:38:26.788Z,66.40
2018-12-14T22:43:08.334Z,66.40
2018-12-14T22:47:49.877Z,66.20
2018-12-14T22:52:31.383Z,66.30
2018-12-14T22:57:12.963Z,66.50
2018-12-14T23:01:54.533Z,66.40
2018-12-14T23:06:36.116Z,66.30
2018-12-14T23:11:17.958Z,66.10
2018-12-14T23:15:59.527Z,66.00
2018-12-14T23:20:41.144Z,66.10
2018-12-14T23:25:22.808Z,66.20
2018-12-14T23:30:05.806Z,66.10
2018-12-14T23:35:51.910Z,66.20
2018-12-14T23:40:33.429Z,66.00
2018-12-14T23:45:14.954Z,66.30
2018-12-14T23:49:56.581Z,66.40
2018-12-14T23:54:38.222Z,66.50
2018-12-14T23:59:19.718Z,66.10
